Arkansas City, KS

1:43 AM CDT on October 23, 2014 (GMT -0500)
APRSWXNET Arkansas City KS US | Change Station
CLOSE
Current Station
Personal Weather Station
Location: Arkansas City, KS
Elevation: 1149 ft
Nearby Weather Stations

Elev 1149 ft 37.07 °N, 97.04 °W | Updated 40 minutes ago

Overcast
Overcast
62 °F
Feels Like 62 °F
N
0
Wind Variable Wind from SSW
Gusts 0.0 mph

Today
High -- | Low -- °F
--% Chance of Precip.
Yesterday
High -- | Low -- °F
Precip. -- in
7:43 AM 6:40 PM
Waning Crescent, 0% visible
Pressure 30.09 in
Visibility 10.0 miles
Clouds Overcast 10000 ft
Dew Point 62 °F
Humidity 100%
Rainfall -999.00 in
Snow Depth Not available.
UV 0 out of 12
Pollen 3.60 out of 12
Air Quality Not available.
Flu Activity No Activity
METAR KWLD 230554Z AUTO 16004KT 10SM OVC100 16/16 A3011 RMK AO2 RAE07 SLP189 P0001 60003 T01610156 10211 20161 402610150 50001

More Conditions Fewer Conditions

Pressure 30.09 in
Visibility 10.0 miles
Clouds Overcast 10000 ft
Dew Point 62 °F
Humidity 100%
Rainfall -999.00 in
Snow Depth Not available.
UV 0 out of 12
Pollen 3.60 out of 12
Air Quality Not available.
Flu Activity No Activity
METAR KWLD 230554Z AUTO 16004KT 10SM OVC100 16/16 A3011 RMK AO2 RAE07 SLP189 P0001 60003 T01610156 10211 20161 402610150 50001

More Conditions Fewer Conditions

10-Day Weather Forecast

Almanac

Astronomy

Oct. 23, 2014 Rise Set
Actual Time 7:43 AM CDT 6:40 PM CDT
Civil Twilight 7:17 AM CDT 7:07 PM CDT
Nautical Twilight 6:46 AM CDT 7:37 PM CDT
Astronomical Twilight 6:16 AM CDT 8:07 PM CDT
Moon 7:24 AM CDT 6:43 PM CDT
Length of Visible Light 11h 50m
Length of Day
10h 57m
Tomorrow will be 2m 12s shorter.
Waning Crescent, 0% of the Moon is Illuminated
Today
Waning Crescent
Oct 23
New
Oct 30
First Quarter
Nov 6
Full
Nov 14
Last Quarter

Today's Extremes

State Highs State Lows

Community

WunderPhotos

Upload Photos

1,764,194 photos uploaded!

Nearby

Snow Depth

Station Depth Elevation
No new snow has been reported.

Earthquake Activity

City Distance Mag. Time & Date
Pawnee, Oklahoma 45 miles 2.7 1:06 AM CDT
2014-10-23
Luther, Oklahoma 101 miles 2.5 10:36 PM CDT
2014-10-22
Crescent, Oklahoma 72 miles 2.7 9:58 PM CDT
2014-10-22
Anthony, Kansas 46 miles 3.3 6:48 PM CDT
2014-10-22
Minimum magnitude displayed is 2.5.

Coastal Water Temperatures

Place Temperature
No Stations Reporting

Nearby Weather Stations